Time;durP1;ratioP1;P1;durP2;ratioP2;P2;SDS_P1;SDS_P2;PMS_P1;PMS_P2;Temp;Humidity;BMP_temperature;BMP_pressure;BME280_temperature;BME280_humidity;BME280_pressure;Samples;Min_cycle;Max_cycle;Signal;HPM_P1;HPM_P2
2023/11/28 00:01:21;;;;;;;4.65;2.78;;;;;;;6.04;66.05;99635.38;4930581;28;124098;-79
2023/11/28 00:03:48;;;;;;;5.55;3.60;;;;;;;6.07;66.13;99639.66;4927824;28;122891;-78
2023/11/28 00:06:17;;;;;;;4.70;3.03;;;;;;;6.09;65.94;99642.22;4911152;28;108740;-79
2023/11/28 00:08:48;;;;;;;3.78;2.90;;;;;;;6.11;66.33;99645.66;4936086;28;109021;-79
2023/11/28 00:11:20;;;;;;;3.83;2.67;;;;;;;6.15;66.39;99662.97;4930223;28;123994;-78
2023/11/28 00:13:48;;;;;;;3.95;2.67;;;;;;;6.14;66.02;99656.00;4939250;28;123260;-79
2023/11/28 00:16:15;;;;;;;4.05;2.78;;;;;;;6.15;65.98;99668.22;4980790;28;107429;-78
2023/11/28 00:18:43;;;;;;;4.32;2.70;;;;;;;6.14;65.92;99671.78;4945538;28;108148;-78
2023/11/28 00:21:11;;;;;;;5.75;2.67;;;;;;;6.13;65.52;99672.72;4939060;28;123726;-79
2023/11/28 00:23:39;;;;;;;3.83;2.95;;;;;;;6.13;66.05;99667.44;4925404;28;124154;-79
2023/11/28 00:26:06;;;;;;;3.60;2.67;;;;;;;6.15;65.72;99679.59;4943604;28;108961;-79
2023/11/28 00:28:36;;;;;;;3.22;2.63;;;;;;;6.14;65.84;99677.03;4929818;28;110272;-77
2023/11/28 00:31:03;;;;;;;4.00;2.40;;;;;;;6.14;65.44;99690.16;4925619;28;123114;-78
2023/11/28 00:33:31;;;;;;;4.13;2.92;;;;;;;6.13;65.55;99702.47;4907507;28;123315;-79
2023/11/28 00:35:58;;;;;;;4.97;2.72;;;;;;;6.13;65.35;99701.63;4920099;28;109789;-78
2023/11/28 00:38:25;;;;;;;3.55;2.65;;;;;;;6.13;65.66;99706.88;4929167;28;109245;-78
2023/11/28 00:40:52;;;;;;;3.67;2.70;;;;;;;6.12;65.37;99720.94;4929474;28;125046;-79
2023/11/28 00:43:20;;;;;;;3.70;3.00;;;;;;;6.13;65.14;99727.91;4947152;28;124174;-78
2023/11/28 00:45:48;;;;;;;3.72;2.90;;;;;;;6.12;65.47;99726.19;4930683;28;108865;-79
2023/11/28 00:48:15;;;;;;;5.30;3.20;;;;;;;6.11;65.55;99735.84;4944729;28;107315;-78
2023/11/28 00:50:42;;;;;;;4.53;3.28;;;;;;;6.11;65.37;99740.28;4942391;28;122934;-79
2023/11/28 00:53:10;;;;;;;4.53;3.38;;;;;;;6.11;65.11;99746.38;4926149;28;123334;-79
2023/11/28 00:55:37;;;;;;;5.68;3.90;;;;;;;6.13;65.15;99739.28;4938967;28;108931;-79
2023/11/28 00:58:04;;;;;;;6.25;3.65;;;;;;;6.12;65.37;99748.09;4917538;28;109182;-79
2023/11/28 01:00:31;;;;;;;6.72;4.32;;;;;;;6.12;65.12;99765.63;4923945;28;123796;-79
2023/11/28 01:03:00;;;;;;;7.25;4.05;;;;;;;6.13;65.19;99759.47;4930860;28;124430;-79
2023/11/28 01:05:28;;;;;;;5.93;3.63;;;;;;;6.12;65.24;99755.09;4938089;28;108118;-79
2023/11/28 01:07:58;;;;;;;7.28;3.92;;;;;;;6.12;65.46;99773.50;4923568;28;108159;-79
2023/11/28 01:10:26;;;;;;;5.80;3.63;;;;;;;6.10;64.92;99757.78;4931272;28;123092;-79
2023/11/28 01:12:53;;;;;;;6.68;4.22;;;;;;;6.10;65.32;99781.44;4919373;28;123526;-78
2023/11/28 01:15:21;;;;;;;5.20;3.72;;;;;;;6.11;65.05;99787.59;4948013;28;109087;-79
2023/11/28 01:17:48;;;;;;;6.40;4.30;;;;;;;6.11;65.06;99792.84;4932070;28;108028;-79
2023/11/28 01:20:15;;;;;;;6.68;4.32;;;;;;;6.12;65.22;99805.94;4937835;28;123870;-79
2023/11/28 01:22:43;;;;;;;6.78;4.63;;;;;;;6.13;65.12;99804.16;4924286;28;122668;-79
2023/11/28 01:25:11;;;;;;;6.53;4.35;;;;;;;6.12;65.16;99810.31;4931581;28;109352;-79
2023/11/28 01:27:38;;;;;;;7.43;5.18;;;;;;;6.11;64.95;99813.88;4926572;28;109672;-79
2023/11/28 01:30:06;;;;;;;7.93;4.63;;;;;;;6.08;65.01;99819.25;4922109;28;124083;-79
2023/11/28 01:32:33;;;;;;;8.18;4.68;;;;;;;6.07;65.09;99817.56;4941666;28;123051;-79
2023/11/28 01:35:02;;;;;;;6.88;3.78;;;;;;;6.04;65.14;99832.50;4927508;28;109492;-79
2023/11/28 01:37:29;;;;;;;9.35;4.30;;;;;;;6.03;64.87;99828.19;4940524;28;109653;-79
2023/11/28 01:39:56;;;;;;;6.30;4.00;;;;;;;6.03;65.19;99836.09;4938184;28;124294;-79
2023/11/28 01:42:24;;;;;;;5.90;3.58;;;;;;;6.03;64.92;99833.44;4935969;28;122785;-79
2023/11/28 01:44:51;;;;;;;6.65;4.15;;;;;;;6.01;64.88;99848.44;4936924;28;108556;-79
2023/11/28 01:47:18;;;;;;;5.82;3.50;;;;;;;6.01;64.73;99860.72;4934242;28;108724;-79
2023/11/28 01:49:46;;;;;;;5.85;3.70;;;;;;;6.00;64.76;99870.38;4947876;28;124751;-79
2023/11/28 01:52:14;;;;;;;5.75;3.70;;;;;;;5.97;64.70;99883.66;4926850;28;124762;-79
2023/11/28 01:54:43;;;;;;;6.15;3.50;;;;;;;5.96;64.57;99883.72;4935193;28;110476;-79
2023/11/28 01:57:10;;;;;;;5.95;3.58;;;;;;;5.93;64.65;99895.16;4931609;28;108755;-79
2023/11/28 01:59:40;;;;;;;7.10;4.00;;;;;;;5.92;64.70;99896.09;4926396;28;123602;-79
2023/11/28 02:02:08;;;;;;;5.68;3.55;;;;;;;5.92;64.86;99898.72;4949576;28;123707;-79
2023/11/28 02:04:35;;;;;;;6.10;3.60;;;;;;;5.90;64.71;99895.31;4951044;28;109393;-79
2023/11/28 02:07:03;;;;;;;5.28;3.40;;;;;;;5.88;64.61;99902.41;4927012;28;108994;-79
2023/11/28 02:09:31;;;;;;;4.72;3.60;;;;;;;5.89;64.63;99914.59;4927519;28;122684;-79
2023/11/28 02:11:58;;;;;;;5.53;3.60;;;;;;;5.87;64.25;99915.59;4951938;28;123991;-79
2023/11/28 02:14:25;;;;;;;5.88;3.47;;;;;;;5.84;64.55;99922.69;4916567;28;108333;-79
2023/11/28 02:16:53;;;;;;;5.75;3.55;;;;;;;5.83;64.40;99928.00;4949778;28;109477;-79
2023/11/28 02:19:20;;;;;;;5.00;3.20;;;;;;;5.81;64.69;99921.94;4927880;28;124754;-79
2023/11/28 02:21:49;;;;;;;4.63;3.08;;;;;;;5.83;64.42;99928.00;4932101;28;122967;-78
2023/11/28 02:24:17;;;;;;;6.40;3.65;;;;;;;5.83;64.81;99941.13;4932509;28;108378;-79
2023/11/28 02:26:45;;;;;;;6.97;3.97;;;;;;;5.83;64.37;99930.63;4928635;28;109377;-79
2023/11/28 02:29:12;;;;;;;5.15;3.58;;;;;;;5.83;64.42;99935.88;4929363;28;123719;-79
2023/11/28 02:31:39;;;;;;;5.70;3.30;;;;;;;5.82;64.12;99934.16;4943437;28;121918;-79
2023/11/28 02:34:06;;;;;;;6.10;3.60;;;;;;;5.82;64.44;99939.41;4930525;28;108198;-78
2023/11/28 02:36:34;;;;;;;6.75;3.67;;;;;;;5.80;64.34;99938.63;4946023;28;108412;-80
2023/11/28 02:39:01;;;;;;;6.45;3.50;;;;;;;5.78;64.74;99945.72;4937001;28;123119;-79
2023/11/28 02:41:28;;;;;;;5.35;3.55;;;;;;;5.79;64.38;99939.56;4935173;28;123849;-79
2023/11/28 02:43:55;;;;;;;6.03;3.45;;;;;;;5.80;64.29;99962.25;4930764;28;110023;-79
2023/11/28 02:46:22;;;;;;;6.35;3.88;;;;;;;5.81;64.51;99969.25;4928406;28;109943;-79
2023/11/28 02:48:51;;;;;;;7.32;3.65;;;;;;;5.80;64.54;99972.78;4928367;28;123377;-79
2023/11/28 02:51:21;;;;;;;5.82;3.88;;;;;;;5.81;64.32;99970.09;4946385;28;123313;-79
2023/11/28 02:53:50;;;;;;;7.20;4.13;;;;;;;5.81;64.29;99974.50;4950740;28;108535;-79
2023/11/28 02:56:18;;;;;;;7.55;4.38;;;;;;;5.80;64.22;99972.78;4934246;28;108358;-79
2023/11/28 02:58:45;;;;;;;6.35;4.03;;;;;;;5.79;64.51;99986.84;4928363;28;124243;-79
2023/11/28 03:01:13;;;;;;;5.97;3.63;;;;;;;5.77;64.30;99993.94;4933838;28;122967;-80
2023/11/28 03:03:40;;;;;;;8.23;4.63;;;;;;;5.76;64.26;99992.22;4926150;28;110471;-79
2023/11/28 03:06:08;;;;;;;7.68;4.45;;;;;;;5.73;63.93;99992.34;4948089;28;110917;-79
2023/11/28 03:08:35;;;;;;;5.93;3.58;;;;;;;5.70;64.16;99995.09;4924276;28;124575;-79
2023/11/28 03:11:02;;;;;;;7.20;4.15;;;;;;;5.72;64.17;100006.38;4917452;28;124475;-79
2023/11/28 03:13:29;;;;;;;6.22;3.85;;;;;;;5.70;64.10;100008.22;4930295;28;109295;-79
2023/11/28 03:15:57;;;;;;;6.43;3.70;;;;;;;5.69;64.16;100011.75;4930093;28;108789;-79
2023/11/28 03:18:25;;;;;;;5.75;3.97;;;;;;;5.68;63.90;100015.31;4925986;28;124753;-79
2023/11/28 03:20:52;;;;;;;6.45;4.30;;;;;;;5.65;63.99;100017.13;4924978;28;123625;-79
2023/11/28 03:23:20;;;;;;;7.18;4.07;;;;;;;5.63;63.86;100024.22;4933665;28;109537;-79
2023/11/28 03:25:48;;;;;;;6.80;4.28;;;;;;;5.62;64.03;100027.75;4926199;28;108320;-79
2023/11/28 03:28:16;;;;;;;7.00;4.13;;;;;;;5.61;64.08;100033.06;4915385;28;123485;-79
2023/11/28 03:30:43;;;;;;;7.75;5.10;;;;;;;5.60;63.99;100033.97;4932273;28;123339;-79
2023/11/28 03:33:10;;;;;;;8.60;4.45;;;;;;;5.61;64.26;100038.31;4920815;28;108062;-79
2023/11/28 03:35:37;;;;;;;8.23;4.88;;;;;;;5.59;63.88;100048.88;4931957;28;108846;-79
2023/11/28 03:38:07;;;;;;;8.98;5.30;;;;;;;5.58;63.81;100052.41;4928132;28;124489;-78
2023/11/28 03:40:34;;;;;;;8.05;5.10;;;;;;;5.58;64.06;100052.41;4934139;28;124830;-79
2023/11/28 03:43:01;;;;;;;9.65;5.15;;;;;;;5.57;63.74;100055.94;4924268;28;108181;-79
2023/11/28 03:45:29;;;;;;;8.45;4.70;;;;;;;5.57;64.02;100066.44;4923323;28;108929;-78
2023/11/28 03:47:56;;;;;;;7.53;5.07;;;;;;;5.58;64.21;100068.19;4928990;28;123496;-79
2023/11/28 03:50:23;;;;;;;8.95;4.57;;;;;;;5.58;63.81;100073.44;4949457;28;123466;-79
2023/11/28 03:52:50;;;;;;;9.45;5.35;;;;;;;5.56;63.93;100075.25;4933028;28;109443;-79
2023/11/28 03:55:18;;;;;;;8.57;5.07;;;;;;;5.56;64.04;100083.13;4934270;28;108984;-79
2023/11/28 03:57:45;;;;;;;8.90;4.75;;;;;;;5.56;63.58;100087.53;4920264;28;124077;-79
2023/11/28 04:00:14;;;;;;;8.05;4.72;;;;;;;5.53;63.73;100096.38;4913203;28;123305;-79
2023/11/28 04:02:42;;;;;;;6.57;4.30;;;;;;;5.55;63.99;100099.81;4949207;28;107665;-79
2023/11/28 04:05:09;;;;;;;7.63;4.78;;;;;;;5.55;63.76;100098.94;4929417;28;108629;-79
2023/11/28 04:07:37;;;;;;;9.35;5.03;;;;;;;5.55;63.59;100105.06;4928134;28;124599;-80
2023/11/28 04:10:05;;;;;;;8.25;5.03;;;;;;;5.54;63.71;100107.72;4947195;28;123532;-79
2023/11/28 04:12:32;;;;;;;6.82;4.57;;;;;;;5.52;63.79;100120.94;4930765;28;109076;-79
2023/11/28 04:15:00;;;;;;;7.07;4.72;;;;;;;5.53;63.90;100127.03;4947960;28;108858;-79
2023/11/28 04:17:27;;;;;;;7.70;4.40;;;;;;;5.52;63.80;100131.44;4925385;28;124186;-78
2023/11/28 04:19:55;;;;;;;7.63;4.13;;;;;;;5.50;63.51;100120.16;4927564;28;122300;-79
2023/11/28 04:22:24;;;;;;;9.05;4.18;;;;;;;5.46;63.39;100121.13;4930946;28;108995;-79
2023/11/28 04:24:53;;;;;;;6.72;4.28;;;;;;;5.45;63.31;100132.56;4933214;28;108058;-79
2023/11/28 04:27:23;;;;;;;5.32;3.45;;;;;;;5.42;63.07;100130.03;4929473;28;122433;-78
2023/11/28 04:29:51;;;;;;;7.88;3.42;;;;;;;5.41;62.98;100141.47;4934372;28;122468;-79
2023/11/28 04:32:19;;;;;;;6.60;3.58;;;;;;;5.40;63.40;100131.88;4934684;28;108773;-79
2023/11/28 04:34:47;;;;;;;6.30;3.92;;;;;;;5.39;62.79;100151.19;4929352;28;107772;-79
2023/11/28 04:37:14;;;;;;;6.95;3.58;;;;;;;5.37;62.88;100155.59;4928515;28;126676;-79
2023/11/28 04:39:45;;;;;;;5.57;3.42;;;;;;;5.34;62.75;100153.09;4938359;28;124022;-79
2023/11/28 04:42:12;;;;;;;6.15;3.40;;;;;;;5.31;62.53;100153.19;4910341;28;110154;-79
2023/11/28 04:44:40;;;;;;;5.35;3.30;;;;;;;5.28;62.49;100163.81;4949594;28;109547;-79
2023/11/28 04:47:07;;;;;;;5.55;3.00;;;;;;;5.23;62.10;100162.19;4930625;28;123953;-79
2023/11/28 04:49:34;;;;;;;5.90;3.22;;;;;;;5.18;61.85;100164.13;4927704;28;124250;-79
2023/11/28 04:52:02;;;;;;;5.90;3.05;;;;;;;5.11;62.09;100173.09;4938832;28;109095;-79
2023/11/28 04:54:29;;;;;;;5.80;2.60;;;;;;;5.07;61.95;100179.38;4933212;28;108348;-79
2023/11/28 04:56:57;;;;;;;5.32;2.63;;;;;;;5.01;61.69;100176.94;4950143;28;122435;-78
2023/11/28 04:59:25;;;;;;;4.55;2.67;;;;;;;4.94;61.98;100184.16;4927095;28;124550;-79
2023/11/28 05:01:52;;;;;;;5.80;3.00;;;;;;;4.90;61.57;100184.28;4927215;28;109403;-79
2023/11/28 05:04:21;;;;;;;5.57;2.55;;;;;;;4.85;61.92;100198.44;4932312;28;110827;-79
2023/11/28 05:06:48;;;;;;;4.68;2.65;;;;;;;4.80;61.80;100200.34;4918927;28;124040;-78
2023/11/28 05:09:20;;;;;;;3.20;2.03;;;;;;;4.78;61.67;100202.13;4942094;28;125010;-78
2023/11/28 05:11:47;;;;;;;5.93;2.10;;;;;;;4.73;61.69;100209.31;4950639;28;107292;-78
2023/11/28 05:14:14;;;;;;;3.90;2.08;;;;;;;4.68;61.70;100225.19;4928118;28;109008;-78
2023/11/28 05:16:43;;;;;;;4.05;2.22;;;;;;;4.63;61.71;100228.84;4924459;28;124215;-78
2023/11/28 05:19:20;;;;;;;3.50;1.77;;;;;;;4.58;61.73;100241.28;4923784;28;123806;-78
2023/11/28 05:21:48;;;;;;;3.88;1.95;;;;;;;4.53;61.34;100240.53;4932485;28;109368;-78
2023/11/28 05:24:15;;;;;;;3.00;1.98;;;;;;;4.47;61.52;100250.28;4929096;28;107653;-78
2023/11/28 05:26:43;;;;;;;4.03;1.95;;;;;;;4.42;61.45;100254.81;4929653;28;123689;-78
2023/11/28 05:29:10;;;;;;;3.05;1.80;;;;;;;4.40;61.64;100259.25;4926737;28;124934;-77
2023/11/28 05:31:38;;;;;;;2.42;1.33;;;;;;;4.36;61.75;100268.09;4927307;28;109567;-78
2023/11/28 05:34:06;;;;;;;2.03;1.42;;;;;;;4.31;61.64;100270.00;4942559;28;108996;-78
2023/11/28 05:36:33;;;;;;;3.22;1.67;;;;;;;4.28;61.97;100270.09;4947631;28;123774;-77
2023/11/28 05:39:00;;;;;;;3.60;1.40;;;;;;;4.25;61.55;100280.66;4945809;28;124298;-78
2023/11/28 05:41:28;;;;;;;3.45;1.60;;;;;;;4.22;61.58;100285.97;4946265;28;109473;-78
2023/11/28 05:43:56;;;;;;;2.90;1.70;;;;;;;4.20;61.52;100295.63;4923042;28;108882;-77
2023/11/28 05:46:24;;;;;;;5.28;1.73;;;;;;;4.15;61.65;100300.16;4919852;28;124145;-78
2023/11/28 05:48:54;;;;;;;4.22;1.83;;;;;;;4.12;61.48;100305.47;4929320;28;123173;-79
2023/11/28 05:51:21;;;;;;;2.50;1.45;;;;;;;4.07;61.83;100306.47;4941888;28;107816;-79
2023/11/28 05:53:49;;;;;;;3.92;1.70;;;;;;;4.05;61.62;100308.28;4925478;28;109602;-79
2023/11/28 05:56:17;;;;;;;4.47;1.65;;;;;;;4.03;61.96;100317.94;4923421;28;123604;-79
2023/11/28 05:58:44;;;;;;;3.33;1.80;;;;;;;4.03;61.71;100328.44;4924681;28;123854;-79
2023/11/28 06:01:14;;;;;;;3.75;1.65;;;;;;;4.01;62.07;100327.59;4943720;28;109826;-79
2023/11/28 06:03:42;;;;;;;4.30;2.00;;;;;;;4.00;62.12;100328.50;4929320;28;108848;-79
2023/11/28 06:06:09;;;;;;;3.85;2.03;;;;;;;4.00;62.01;100338.97;4928312;28;124431;-79
2023/11/28 06:08:36;;;;;;;4.68;2.17;;;;;;;4.01;62.09;100339.81;4921592;28;123823;-80
2023/11/28 06:11:04;;;;;;;3.88;1.73;;;;;;;4.01;62.07;100340.72;4927695;28;108484;-79
2023/11/28 06:13:31;;;;;;;4.15;2.30;;;;;;;4.01;62.18;100345.94;4926869;28;108735;-79
2023/11/28 06:15:58;;;;;;;4.18;1.80;;;;;;;4.01;62.12;100345.94;4927636;28;122963;-79
2023/11/28 06:18:26;;;;;;;4.93;1.90;;;;;;;4.02;62.14;100346.81;4927088;28;125525;-79
2023/11/28 06:20:53;;;;;;;3.13;1.65;;;;;;;4.02;62.36;100363.38;4911193;28;109246;-78
2023/11/28 06:23:21;;;;;;;4.05;2.00;;;;;;;4.01;62.36;100360.78;4942098;28;111326;-79
2023/11/28 06:25:48;;;;;;;4.78;2.22;;;;;;;4.01;62.14;100372.16;4928193;28;122817;-79
2023/11/28 06:28:16;;;;;;;3.75;2.10;;;;;;;4.01;62.33;100377.41;4933153;28;122708;-79
2023/11/28 06:30:43;;;;;;;3.05;1.90;;;;;;;4.00;62.41;100375.66;4924936;28;108511;-79
2023/11/28 06:33:10;;;;;;;5.00;2.08;;;;;;;4.02;62.23;100373.84;4932499;28;107805;-79
2023/11/28 06:35:38;;;;;;;4.18;2.20;;;;;;;4.05;62.33;100384.28;4928897;28;123889;-79
2023/11/28 06:38:05;;;;;;;3.35;2.20;;;;;;;4.06;62.30;100391.22;4950939;28;123964;-79
2023/11/28 06:40:32;;;;;;;4.45;1.95;;;;;;;4.06;62.37;100391.22;4931639;28;109745;-79
2023/11/28 06:43:00;;;;;;;5.07;2.08;;;;;;;4.08;62.18;100389.41;4928949;28;108616;-79
2023/11/28 06:45:27;;;;;;;3.75;1.98;;;;;;;4.11;62.48;100393.75;4925144;28;123776;-79
2023/11/28 06:47:54;;;;;;;4.03;2.13;;;;;;;4.12;62.18;100411.16;4929098;28;123601;-80
2023/11/28 06:50:22;;;;;;;3.40;1.95;;;;;;;4.13;62.31;100401.56;4936712;28;108785;-80
2023/11/28 06:52:49;;;;;;;3.33;1.80;;;;;;;4.13;62.23;100412.03;4929831;28;108899;-79
2023/11/28 06:55:16;;;;;;;2.25;1.50;;;;;;;4.15;62.29;100410.25;4927992;28;124067;-79
2023/11/28 06:57:48;;;;;;;4.15;1.90;;;;;;;4.17;62.16;100418.94;4933534;28;123702;-79
2023/11/28 07:00:16;;;;;;;5.57;2.10;;;;;;;4.19;62.49;100422.38;4941505;28;108661;-79
2023/11/28 07:02:43;;;;;;;2.83;1.50;;;;;;;4.19;62.11;100428.47;4934354;28;107288;-79
2023/11/28 07:05:11;;;;;;;2.28;1.42;;;;;;;4.20;62.40;100421.44;4922316;28;124489;-79
2023/11/28 07:07:39;;;;;;;3.45;1.80;;;;;;;4.22;62.17;100435.38;4924061;28;123329;-79
2023/11/28 07:10:08;;;;;;;3.97;2.00;;;;;;;4.23;62.43;100434.50;4933143;28;109781;-80
2023/11/28 07:12:35;;;;;;;2.85;1.75;;;;;;;4.26;62.20;100444.91;4944805;28;110492;-80
2023/11/28 07:15:04;;;;;;;4.40;1.90;;;;;;;4.28;62.35;100449.19;4948095;28;123641;-79
2023/11/28 07:17:32;;;;;;;3.28;1.75;;;;;;;4.32;62.27;100457.00;4925896;28;125115;-78
2023/11/28 07:19:59;;;;;;;3.15;1.73;;;;;;;4.35;62.23;100467.38;4927537;28;110545;-79
2023/11/28 07:22:27;;;;;;;2.75;1.60;;;;;;;4.36;62.04;100467.34;4926029;28;108854;-79
2023/11/28 07:24:54;;;;;;;5.25;2.00;;;;;;;4.39;62.51;100472.53;4932007;28;124758;-79
2023/11/28 07:27:25;;;;;;;3.10;1.73;;;;;;;4.42;62.40;100469.81;4909883;28;124664;-79
2023/11/28 07:29:53;;;;;;;2.30;1.60;;;;;;;4.46;62.32;100474.09;4947968;28;108460;-79
2023/11/28 07:32:20;;;;;;;3.10;1.63;;;;;;;4.51;62.65;100475.72;4945545;28;108648;-79
2023/11/28 07:34:47;;;;;;;3.28;1.30;;;;;;;4.56;62.54;100489.56;4946734;28;123980;-79
2023/11/28 07:37:14;;;;;;;3.97;1.63;;;;;;;4.60;62.27;100491.22;4933484;28;124015;-79
2023/11/28 07:39:42;;;;;;;3.20;1.52;;;;;;;4.64;62.51;100498.13;4928237;28;109063;-78
2023/11/28 07:42:09;;;;;;;3.60;1.60;;;;;;;4.68;62.11;100505.00;4926808;28;108310;-79
2023/11/28 07:44:36;;;;;;;2.78;1.50;;;;;;;4.71;62.46;100504.94;4929782;28;123822;-78
2023/11/28 07:47:03;;;;;;;3.90;1.50;;;;;;;4.74;62.37;100510.06;4933375;28;123121;-78
2023/11/28 07:49:30;;;;;;;3.45;2.05;;;;;;;4.77;62.50;100515.25;4944902;28;108447;-78
2023/11/28 07:51:57;;;;;;;4.38;1.65;;;;;;;4.80;62.43;100519.53;4945465;28;107975;-79
2023/11/28 07:54:24;;;;;;;2.92;1.70;;;;;;;4.82;62.53;100523.88;4938001;28;124599;-79
2023/11/28 07:56:51;;;;;;;4.45;1.70;;;;;;;4.85;62.60;100520.28;4935961;28;123106;-78
2023/11/28 07:59:19;;;;;;;2.67;1.65;;;;;;;4.88;62.39;100528.94;4938137;28;109568;-78
2023/11/28 08:01:46;;;;;;;6.50;2.20;;;;;;;4.90;62.47;100530.66;4938167;28;110157;-79
2023/11/28 08:04:14;;;;;;;3.78;2.03;;;;;;;4.91;62.44;100533.25;4924447;28;123642;-78
2023/11/28 08:06:42;;;;;;;2.60;1.55;;;;;;;4.95;62.39;100528.78;4925579;28;122808;-79
2023/11/28 08:09:09;;;;;;;6.63;1.75;;;;;;;4.95;62.53;100539.28;4923181;28;109757;-78
2023/11/28 08:11:36;;;;;;;2.85;1.40;;;;;;;4.97;62.49;100540.09;4928694;28;108843;-78
2023/11/28 08:14:04;;;;;;;3.75;1.75;;;;;;;4.98;62.70;100540.06;4924967;28;123704;-79
2023/11/28 08:16:31;;;;;;;3.08;1.70;;;;;;;5.01;62.66;100544.34;4943829;28;123599;-79
2023/11/28 08:18:58;;;;;;;3.67;1.73;;;;;;;5.03;62.41;100558.31;4926012;28;108607;-79
2023/11/28 08:21:26;;;;;;;2.80;1.60;;;;;;;5.05;62.68;100556.50;4923988;28;108103;-79
2023/11/28 08:23:53;;;;;;;2.40;1.42;;;;;;;5.07;62.22;100555.56;4932192;28;124029;-79
2023/11/28 08:26:20;;;;;;;3.25;1.50;;;;;;;5.10;62.35;100565.09;4918002;28;123323;-79
2023/11/28 08:28:47;;;;;;;3.55;1.52;;;;;;;5.12;62.48;100568.53;4926491;28;109413;-79
2023/11/28 08:31:15;;;;;;;3.72;1.85;;;;;;;5.16;62.20;100575.47;4935652;28;107883;-79
2023/11/28 08:33:42;;;;;;;4.32;1.42;;;;;;;5.20;62.27;100566.59;4938192;28;123994;-79
2023/11/28 08:36:09;;;;;;;3.88;1.85;;;;;;;5.24;62.20;100578.72;4936626;28;123665;-79
2023/11/28 08:38:39;;;;;;;2.90;1.25;;;;;;;5.28;62.37;100578.66;4935422;28;109482;-79
2023/11/28 08:41:07;;;;;;;3.20;1.60;;;;;;;5.31;62.07;100589.03;4926887;28;109283;-79
2023/11/28 08:43:35;;;;;;;4.18;1.80;;;;;;;5.33;62.31;100587.25;4925171;28;123926;-79
2023/11/28 08:46:02;;;;;;;3.63;1.50;;;;;;;5.35;62.14;100595.94;4916385;28;123067;-79
2023/11/28 08:48:31;;;;;;;3.42;1.55;;;;;;;5.35;61.71;100595.94;4917374;28;111072;-79
2023/11/28 08:50:58;;;;;;;4.18;1.38;;;;;;;5.36;61.83;100597.66;4920462;28;109572;-78
2023/11/28 08:53:25;;;;;;;3.70;1.58;;;;;;;5.38;62.04;100601.97;4944053;28;124575;-79
2023/11/28 08:55:52;;;;;;;3.63;1.40;;;;;;;5.40;61.57;100599.31;4924588;28;123129;-79
2023/11/28 08:58:20;;;;;;;2.30;1.20;;;;;;;5.42;61.81;100613.25;4929067;28;108874;-79
2023/11/28 09:00:47;;;;;;;2.00;1.15;;;;;;;5.42;61.15;100608.84;4929521;28;108421;-78
2023/11/28 09:03:14;;;;;;;1.98;1.17;;;;;;;5.43;61.56;100609.75;4935843;28;123279;-79
2023/11/28 09:05:42;;;;;;;1.80;1.10;;;;;;;5.43;61.14;100609.75;4939183;28;124236;-79
2023/11/28 09:08:09;;;;;;;2.28;1.20;;;;;;;5.45;61.47;100618.44;4914070;28;111203;-79
2023/11/28 09:10:36;;;;;;;2.15;1.30;;;;;;;5.48;61.53;100618.31;4928390;28;108716;-79
2023/11/28 09:13:04;;;;;;;3.50;1.20;;;;;;;5.51;61.43;100618.25;4919867;28;124272;-79
2023/11/28 09:15:31;;;;;;;3.17;1.25;;;;;;;5.54;61.24;100627.81;4941709;28;123342;-79
2023/11/28 09:17:58;;;;;;;2.85;1.38;;;;;;;5.55;61.30;100627.75;4923449;28;108528;-79
2023/11/28 09:20:25;;;;;;;2.35;1.40;;;;;;;5.55;60.94;100630.38;4929395;28;108505;-79
2023/11/28 09:22:53;;;;;;;4.07;1.50;;;;;;;5.54;61.37;100628.69;4926845;28;123778;-79
2023/11/28 09:25:20;;;;;;;3.20;1.40;;;;;;;5.56;61.08;100642.63;4920867;28;124181;-79
2023/11/28 09:27:47;;;;;;;3.63;1.25;;;;;;;5.55;60.94;100646.16;4925519;28;109719;-79
2023/11/28 09:30:16;;;;;;;5.00;1.33;;;;;;;5.56;61.32;100647.88;4918786;28;108532;-79
2023/11/28 09:32:44;;;;;;;2.55;1.77;;;;;;;5.56;61.03;100647.88;4926364;28;123962;-79
2023/11/28 09:35:12;;;;;;;4.60;1.63;;;;;;;5.58;61.09;100651.34;4932075;28;123125;-78
2023/11/28 09:37:39;;;;;;;3.22;1.40;;;;;;;5.61;61.12;100656.50;4919925;28;110115;-79
2023/11/28 09:40:07;;;;;;;2.50;1.30;;;;;;;5.65;61.47;100663.41;4946007;28;109048;-79
2023/11/28 09:42:38;;;;;;;5.15;1.90;;;;;;;5.69;61.24;100665.94;4931917;28;123977;-79
2023/11/28 09:45:05;;;;;;;3.25;1.73;;;;;;;5.72;61.12;100663.22;4930820;28;123934;-79
2023/11/28 09:47:38;;;;;;;3.00;1.55;;;;;;;5.73;61.01;100670.22;4927666;28;109276;-79
2023/11/28 09:50:12;;;;;;;2.83;1.55;;;;;;;5.75;61.33;100668.41;4929175;28;109711;-79
2023/11/28 09:52:44;;;;;;;2.67;1.60;;;;;;;5.76;61.21;100664.84;4926149;28;123481;-79
2023/11/28 09:55:15;;;;;;;4.00;1.80;;;;;;;5.77;61.19;100661.34;4932418;28;123871;-79
2023/11/28 09:57:47;;;;;;;2.15;1.40;;;;;;;5.79;61.11;100664.78;4943004;28;109598;-79
2023/11/28 10:00:20;;;;;;;3.25;1.70;;;;;;;5.83;60.97;100667.25;4920158;28;108712;-79
2023/11/28 10:02:52;;;;;;;2.72;1.30;;;;;;;5.86;61.11;100666.34;4936634;28;123529;-79
2023/11/28 10:05:21;;;;;;;3.72;1.52;;;;;;;5.90;61.13;100667.97;4922672;28;123470;-79
2023/11/28 10:07:52;;;;;;;2.42;1.60;;;;;;;5.95;61.35;100660.84;4935533;28;108129;-79
2023/11/28 10:10:21;;;;;;;2.65;1.23;;;;;;;6.02;61.33;100662.38;4941134;28;109011;-78
2023/11/28 10:12:50;;;;;;;3.35;1.83;;;;;;;6.08;61.40;100671.00;4923466;28;124313;-79
2023/11/28 10:15:20;;;;;;;4.85;1.60;;;;;;;6.12;61.39;100672.63;4934670;28;123109;-79
2023/11/28 10:17:49;;;;;;;3.58;1.35;;;;;;;6.18;61.02;100667.22;4923943;28;108871;-79
2023/11/28 10:20:17;;;;;;;2.60;1.50;;;;;;;6.23;61.25;100665.28;4934718;28;107711;-79
2023/11/28 10:22:51;;;;;;;3.17;1.40;;;;;;;6.27;61.01;100672.16;4932714;28;124162;-78
2023/11/28 10:25:22;;;;;;;2.20;1.30;;;;;;;6.30;60.79;100672.09;4949009;28;122856;-79
2023/11/28 10:27:57;;;;;;;2.08;1.35;;;;;;;6.33;60.72;100672.00;4929766;28;110660;-79
2023/11/28 10:30:25;;;;;;;;;;;;;;;6.37;61.11;100672.78;4924355;28;110036;-78
2023/11/28 10:32:57;;;;;;;2.17;1.23;;;;;;;6.41;60.84;100685.78;4946553;28;124781;-78
2023/11/28 10:35:37;;;;;;;3.85;1.25;;;;;;;6.50;61.07;100675.88;4930808;28;124019;-79
2023/11/28 10:38:05;;;;;;;3.00;1.20;;;;;;;6.55;61.04;100671.31;4929806;28;109186;-79
2023/11/28 10:40:33;;;;;;;2.97;1.20;;;;;;;6.60;60.92;100670.28;4938152;28;109588;-78
2023/11/28 10:43:00;;;;;;;2.53;1.20;;;;;;;6.64;60.89;100660.50;4932620;28;124288;-78
2023/11/28 10:45:28;;;;;;;2.40;1.25;;;;;;;6.67;60.42;100660.44;4933969;28;122597;-78
2023/11/28 10:47:55;;;;;;;2.70;1.20;;;;;;;6.69;60.50;100658.59;4936082;28;108972;-79
2023/11/28 10:50:23;;;;;;;1.55;1.02;;;;;;;6.71;60.43;100656.78;4926756;28;108774;-78
2023/11/28 10:52:51;;;;;;;4.10;1.40;;;;;;;6.75;60.56;100658.41;4924322;28;123860;-79
2023/11/28 10:55:26;;;;;;;3.50;1.15;;;;;;;6.80;60.46;100658.28;4922657;28;123174;-79
2023/11/28 10:58:03;;;;;;;1.45;1.00;;;;;;;6.87;60.71;100661.53;4925181;28;109079;-79
2023/11/28 11:00:40;;;;;;;1.88;1.15;;;;;;;6.89;60.14;100654.47;4923603;28;106808;-79
2023/11/28 11:03:08;;;;;;;2.70;1.10;;;;;;;6.93;60.32;100656.06;4927260;28;124963;-78
2023/11/28 11:05:35;;;;;;;2.75;1.20;;;;;;;6.96;60.24;100648.94;4926984;28;123670;-79
2023/11/28 11:08:03;;;;;;;4.22;1.10;;;;;;;6.99;60.09;100650.63;4922274;28;108956;-79
2023/11/28 11:10:31;;;;;;;3.35;1.20;;;;;;;7.04;60.44;100651.31;4942251;28;109464;-78
2023/11/28 11:13:36;;;;;;;3.03;1.40;;;;;;;7.11;60.13;100655.47;4934416;28;124685;-79
2023/11/28 11:16:25;;;;;;;2.80;1.00;;;;;;;7.18;60.07;100645.59;4926426;28;123624;-79
2023/11/28 11:18:56;;;;;;;3.22;1.02;;;;;;;7.20;60.08;100655.16;4919704;28;110039;-78
2023/11/28 11:21:31;;;;;;;2.08;1.25;;;;;;;7.22;60.10;100649.84;4929792;28;108876;-78
2023/11/28 11:24:00;;;;;;;1.80;1.00;;;;;;;7.25;60.15;100656.75;4922291;28;124436;-78
2023/11/28 11:26:36;;;;;;;2.50;1.02;;;;;;;7.27;59.77;100660.22;4923805;28;123652;-79
2023/11/28 11:29:18;;;;;;;1.35;1.00;;;;;;;7.30;59.42;100654.84;4927374;28;109260;-78
2023/11/28 11:32:14;;;;;;;1.80;1.10;;;;;;;7.33;59.52;100652.13;4948938;28;108646;-78